createdAt,value
2023-04-09T00:00:21.760Z,101684.69
2023-04-09T00:02:49.545Z,101683.75
2023-04-09T00:05:18.801Z,101680.53
2023-04-09T00:07:46.550Z,101687.81
2023-04-09T00:10:14.311Z,101687.16
2023-04-09T00:12:42.040Z,101690.72
2023-04-09T00:15:15.033Z,101686.69
2023-04-09T00:17:48.657Z,101680.97
2023-04-09T00:20:17.825Z,101677.38
2023-04-09T00:22:45.517Z,101680.75
2023-04-09T00:25:13.453Z,101685.47
2023-04-09T00:27:41.147Z,101676.91
2023-04-09T00:30:10.513Z,101680.84
2023-04-09T00:32:38.277Z,101675.97
2023-04-09T00:35:06.807Z,101675.47
2023-04-09T00:37:35.913Z,101671.53
2023-04-09T00:40:03.748Z,101674.09
2023-04-09T00:42:33.240Z,101671.81
2023-04-09T00:45:01.060Z,101671.06
2023-04-09T00:47:30.983Z,101675.09
2023-04-09T00:49:58.937Z,101671.06
2023-04-09T00:52:26.988Z,101678.50
2023-04-09T00:54:56.124Z,101671.03
2023-04-09T00:57:24.000Z,101668.41
2023-04-09T00:59:51.958Z,101661.25
2023-04-09T01:02:20.778Z,101677.75
2023-04-09T01:04:49.150Z,101668.50
2023-04-09T01:07:26.929Z,101670.09
2023-04-09T01:10:04.534Z,101676.22
2023-04-09T01:12:44.948Z,101673.69
2023-04-09T01:15:19.255Z,101671.34
2023-04-09T01:17:51.616Z,101659.75
2023-04-09T01:20:23.964Z,101660.59
2023-04-09T01:23:02.408Z,101665.50
2023-04-09T01:25:44.978Z,101666.78
2023-04-09T01:28:19.320Z,101670.38
2023-04-09T01:30:50.940Z,101660.81
2023-04-09T01:33:20.806Z,101666.25
2023-04-09T01:35:50.586Z,101666.06
2023-04-09T01:38:20.716Z,101666.44
2023-04-09T01:40:49.871Z,101670.16
2023-04-09T01:43:20.109Z,101663.97
2023-04-09T01:45:49.163Z,101668.47
2023-04-09T01:48:17.751Z,101660.88
2023-04-09T01:50:46.165Z,101670.56
2023-04-09T01:53:14.110Z,101665.28
2023-04-09T01:55:41.863Z,101675.44
2023-04-09T01:58:09.592Z,101667.00
2023-04-09T02:00:41.037Z,101666.22
2023-04-09T02:03:12.413Z,101670.72
2023-04-09T02:05:45.755Z,101660.19
2023-04-09T02:08:20.213Z,101662.44
2023-04-09T02:10:55.701Z,101666.59
2023-04-09T02:13:25.865Z,101662.84
2023-04-09T02:15:58.848Z,101659.28
2023-04-09T02:18:28.577Z,101656.66
2023-04-09T02:20:57.182Z,101660.97
2023-04-09T02:23:24.928Z,101653.63
2023-04-09T02:25:53.644Z,101656.56
2023-04-09T02:28:21.352Z,101651.00
2023-04-09T02:30:49.094Z,101657.78
2023-04-09T02:33:18.307Z,101654.31
2023-04-09T02:35:46.055Z,101637.84
2023-04-09T02:38:15.964Z,101653.00
2023-04-09T02:40:44.155Z,101649.59
2023-04-09T02:43:11.905Z,101647.25
2023-04-09T02:45:39.742Z,101642.06
2023-04-09T02:48:07.544Z,101640.44
2023-04-09T02:50:37.921Z,101644.22
2023-04-09T02:53:05.828Z,101646.09
2023-04-09T02:55:33.809Z,101637.03
2023-04-09T02:58:01.635Z,101637.78
2023-04-09T03:00:29.351Z,101635.25
2023-04-09T03:02:58.028Z,101640.44
2023-04-09T03:05:26.191Z,101642.31
2023-04-09T03:07:56.107Z,101626.50
2023-04-09T03:10:23.980Z,101632.25
2023-04-09T03:12:51.793Z,101632.91
2023-04-09T03:15:19.587Z,101628.69
2023-04-09T03:17:47.317Z,101615.94
2023-04-09T03:20:15.068Z,101623.28
2023-04-09T03:22:43.170Z,101627.72
2023-04-09T03:25:24.606Z,101621.59
2023-04-09T03:27:55.122Z,101623.47
2023-04-09T03:30:37.077Z,101616.00
2023-04-09T03:33:07.206Z,101625.78
2023-04-09T03:35:44.568Z,101616.38
2023-04-09T03:38:13.403Z,101618.16
2023-04-09T03:40:42.690Z,101614.00
2023-04-09T03:43:10.464Z,101613.25
2023-04-09T03:45:41.234Z,101616.81
2023-04-09T03:48:19.964Z,101617.56
2023-04-09T03:50:47.983Z,101614.34
2023-04-09T03:53:21.894Z,101614.81
2023-04-09T03:55:51.021Z,101609.81
2023-04-09T03:58:24.548Z,101605.31
2023-04-09T04:00:53.198Z,101615.84
2023-04-09T04:03:33.443Z,101609.81
2023-04-09T04:06:15.165Z,101605.47
2023-04-09T04:08:51.291Z,101617.59
2023-04-09T04:11:24.479Z,101620.41
2023-04-09T04:13:55.860Z,101623.88
2023-04-09T04:16:24.856Z,101612.72
2023-04-09T04:18:54.065Z,101617.31
2023-04-09T04:21:22.349Z,101614.59
2023-04-09T04:23:58.008Z,101611.34
2023-04-09T04:26:30.266Z,101613.75
2023-04-09T04:28:58.140Z,101612.22
2023-04-09T04:31:37.303Z,101605.72
2023-04-09T04:34:05.731Z,101609.34
2023-04-09T04:36:33.539Z,101604.09
2023-04-09T04:39:01.658Z,101603.72
2023-04-09T04:41:42.219Z,101599.31
2023-04-09T04:44:21.443Z,101609.53
2023-04-09T04:46:52.676Z,101608.31
2023-04-09T04:49:20.447Z,101611.03
2023-04-09T04:51:49.329Z,101611.09
2023-04-09T04:54:18.211Z,101606.19
2023-04-09T04:56:59.252Z,101611.53
2023-04-09T04:59:38.546Z,101613.31
2023-04-09T05:02:07.664Z,101614.22
2023-04-09T05:05:02.729Z,101613.38
2023-04-09T05:07:39.154Z,101613.47
2023-04-09T05:10:08.823Z,101617.97
2023-04-09T05:12:42.258Z,101610.25
2023-04-09T05:15:12.241Z,101612.03
2023-04-09T05:17:39.959Z,101613.06
2023-04-09T05:20:09.836Z,101617.53
2023-04-09T05:22:47.989Z,101617.06
2023-04-09T05:25:17.281Z,101624.75
2023-04-09T05:27:46.579Z,101623.66
2023-04-09T05:30:14.484Z,101621.09
2023-04-09T05:32:43.215Z,101624.34
2023-04-09T05:35:11.297Z,101628.13
2023-04-09T05:37:43.412Z,101621.53
2023-04-09T05:40:13.515Z,101633.22
2023-04-09T05:42:41.869Z,101630.00
2023-04-09T05:45:19.942Z,101626.28
2023-04-09T05:47:51.977Z,101628.50
2023-04-09T05:50:22.783Z,101627.38
2023-04-09T05:52:54.245Z,101627.03
2023-04-09T05:55:23.640Z,101630.34
2023-04-09T05:57:57.236Z,101626.78
2023-04-09T06:00:26.472Z,101626.72
2023-04-09T06:02:54.314Z,101628.28
2023-04-09T06:05:22.070Z,101623.03
2023-04-09T06:07:49.805Z,101629.16
2023-04-09T06:10:18.008Z,101620.16
2023-04-09T06:12:47.888Z,101622.66
2023-04-09T06:15:16.068Z,101617.25
2023-04-09T06:17:46.861Z,101626.63
2023-04-09T06:20:14.747Z,101627.31
2023-04-09T06:22:42.432Z,101637.50
2023-04-09T06:25:10.533Z,101632.16
2023-04-09T06:27:38.297Z,101625.66
2023-04-09T06:30:07.442Z,101628.13
2023-04-09T06:32:46.923Z,101629.66
2023-04-09T06:35:24.089Z,101624.16
2023-04-09T06:37:51.861Z,101624.88
2023-04-09T06:40:22.327Z,101634.88
2023-04-09T06:42:53.104Z,101630.31
2023-04-09T06:45:27.579Z,101639.44
2023-04-09T06:47:58.219Z,101639.09
2023-04-09T06:50:27.589Z,101640.56
2023-04-09T06:52:55.732Z,101647.38
2023-04-09T06:55:23.689Z,101639.13
2023-04-09T06:57:51.422Z,101641.75
2023-04-09T07:00:19.502Z,101649.25
2023-04-09T07:02:47.384Z,101655.28
2023-04-09T07:05:15.394Z,101656.91
2023-04-09T07:07:44.746Z,101653.25
2023-04-09T07:10:12.626Z,101656.47
2023-04-09T07:12:40.371Z,101664.72
2023-04-09T07:15:09.266Z,101666.25
2023-04-09T07:17:37.093Z,101665.88
2023-04-09T07:20:05.530Z,101662.38
2023-04-09T07:22:33.332Z,101669.53
2023-04-09T07:25:02.550Z,101670.38
2023-04-09T07:27:30.390Z,101677.75
2023-04-09T07:29:59.062Z,101667.97
2023-04-09T07:32:28.390Z,101666.81
2023-04-09T07:34:57.705Z,101668.91
2023-04-09T07:37:25.413Z,101672.06
2023-04-09T07:39:56.557Z,101667.47
2023-04-09T07:42:25.683Z,101674.16
2023-04-09T07:44:53.701Z,101671.53
2023-04-09T07:47:22.345Z,101672.84
2023-04-09T07:49:50.461Z,101664.84
2023-04-09T07:52:18.214Z,101672.47
2023-04-09T07:54:46.033Z,101665.91
2023-04-09T07:57:13.793Z,101673.81
2023-04-09T07:59:43.021Z,101666.63
2023-04-09T08:02:13.484Z,101667.94
2023-04-09T08:04:42.816Z,101664.38
2023-04-09T08:07:11.482Z,101672.72
2023-04-09T08:09:39.183Z,101667.75
2023-04-09T08:12:06.951Z,101671.25
2023-04-09T08:14:34.838Z,101666.84
2023-04-09T08:17:03.932Z,101674.34
2023-04-09T08:19:34.517Z,101671.91
2023-04-09T08:22:02.576Z,101674.25
2023-04-09T08:24:30.389Z,101668.78
2023-04-09T08:26:58.641Z,101661.72
2023-04-09T08:29:26.564Z,101665.75
2023-04-09T08:31:54.357Z,101671.03
2023-04-09T08:34:23.448Z,101670.34
2023-04-09T08:36:51.333Z,101675.44
2023-04-09T08:39:20.146Z,101675.00
2023-04-09T08:41:48.555Z,101666.47
2023-04-09T08:44:16.690Z,101676.63
2023-04-09T08:46:44.730Z,101669.34
2023-04-09T08:49:13.097Z,101681.19
2023-04-09T08:51:47.357Z,101683.72
2023-04-09T08:54:17.016Z,101681.00
2023-04-09T08:56:44.828Z,101678.06
2023-04-09T08:59:12.591Z,101683.25
2023-04-09T09:01:40.525Z,101673.44
2023-04-09T09:04:11.024Z,101667.13
2023-04-09T09:06:40.934Z,101669.94
2023-04-09T09:09:11.940Z,101665.94
2023-04-09T09:11:41.409Z,101669.34
2023-04-09T09:14:10.805Z,101658.56
2023-04-09T09:16:42.844Z,101659.97
2023-04-09T09:19:10.950Z,101663.13
2023-04-09T09:21:38.699Z,101658.31
2023-04-09T09:24:18.091Z,101634.63
2023-04-09T09:26:45.880Z,101657.47
2023-04-09T09:29:13.774Z,101651.53
2023-04-09T09:31:49.210Z,101652.19
2023-04-09T09:34:17.890Z,101648.06
2023-04-09T09:36:46.416Z,101652.44
2023-04-09T09:39:17.468Z,101657.06
2023-04-09T09:41:47.360Z,101644.28
2023-04-09T09:44:32.138Z,101643.09
2023-04-09T09:47:00.637Z,101646.06
2023-04-09T09:49:28.410Z,101643.34
2023-04-09T09:52:00.588Z,101639.75
2023-04-09T09:54:40.980Z,101642.03
2023-04-09T09:57:10.472Z,101640.00
2023-04-09T09:59:41.370Z,101637.34
2023-04-09T10:02:16.811Z,101632.06
2023-04-09T10:04:45.286Z,101639.72
2023-04-09T10:07:16.043Z,101630.25
2023-04-09T10:09:50.494Z,101636.41
2023-04-09T10:12:25.841Z,101635.78
2023-04-09T10:14:56.515Z,101631.31
2023-04-09T10:17:24.786Z,101630.47
2023-04-09T10:20:01.176Z,101625.16
2023-04-09T10:22:33.031Z,101621.22
2023-04-09T10:25:02.715Z,101619.03
2023-04-09T10:27:31.142Z,101631.78
2023-04-09T10:30:00.152Z,101627.16
2023-04-09T10:32:28.810Z,101625.13
2023-04-09T10:34:59.413Z,101631.69
2023-04-09T10:37:29.902Z,101627.84
2023-04-09T10:39:58.661Z,101629.06
2023-04-09T10:42:33.215Z,101638.47
2023-04-09T10:45:11.586Z,101623.28
2023-04-09T10:47:41.383Z,101627.78
2023-04-09T10:50:17.130Z,101619.88
2023-04-09T10:52:45.066Z,101612.06
2023-04-09T10:55:37.436Z,101616.03
2023-04-09T10:58:12.637Z,101617.88
2023-04-09T11:00:43.003Z,101622.16
2023-04-09T11:03:22.850Z,101622.63
2023-04-09T11:05:54.776Z,101623.22
2023-04-09T11:08:23.060Z,101620.22
2023-04-09T11:10:52.320Z,101608.91
2023-04-09T11:13:24.148Z,101601.94
2023-04-09T11:15:52.297Z,101607.91
2023-04-09T11:18:24.572Z,101601.00
2023-04-09T11:20:55.692Z,101604.56
2023-04-09T11:23:24.437Z,101599.06
2023-04-09T11:25:53.711Z,101588.72
2023-04-09T11:28:25.623Z,101599.41
2023-04-09T11:30:53.676Z,101598.00
2023-04-09T11:33:22.349Z,101606.31
2023-04-09T11:35:50.318Z,101593.56
2023-04-09T11:38:18.752Z,101591.22
2023-04-09T11:40:49.242Z,101582.31
2023-04-09T11:43:18.100Z,101587.38
2023-04-09T11:45:48.562Z,101586.09
2023-04-09T11:48:18.503Z,101590.38
2023-04-09T11:50:48.005Z,101595.25
2023-04-09T11:53:23.758Z,101601.72
2023-04-09T11:55:52.549Z,101584.69
2023-04-09T11:58:23.763Z,101584.06
2023-04-09T12:00:56.571Z,101591.16
2023-04-09T12:03:30.785Z,101582.31
2023-04-09T12:06:01.698Z,101584.84
2023-04-09T12:08:29.547Z,101576.09
2023-04-09T12:10:57.565Z,101580.13
2023-04-09T12:13:33.980Z,101579.97
2023-04-09T12:16:03.596Z,101592.56
2023-04-09T12:18:31.412Z,101587.78
2023-04-09T12:21:01.016Z,101578.94
2023-04-09T12:23:28.622Z,101579.91
2023-04-09T12:25:56.260Z,101578.09
2023-04-09T12:28:23.971Z,101568.50
2023-04-09T12:30:52.022Z,101569.06
2023-04-09T12:33:21.788Z,101564.28
2023-04-09T12:35:49.539Z,101563.16
2023-04-09T12:38:17.287Z,101560.69
2023-04-09T12:40:45.407Z,101566.69
2023-04-09T12:43:13.130Z,101568.47
2023-04-09T12:45:40.918Z,101567.66
2023-04-09T12:48:08.713Z,101564.50
2023-04-09T12:50:37.903Z,101569.44
2023-04-09T12:53:05.736Z,101563.91
2023-04-09T12:55:33.725Z,101564.13
2023-04-09T12:58:02.499Z,101559.94
2023-04-09T13:00:31.242Z,101558.91
2023-04-09T13:02:59.161Z,101558.31
2023-04-09T13:05:27.032Z,101561.69
2023-04-09T13:07:56.196Z,101555.16
2023-04-09T13:10:24.022Z,101555.84
2023-04-09T13:12:51.755Z,101542.13
2023-04-09T13:15:19.535Z,101543.97
2023-04-09T13:17:47.336Z,101542.66
2023-04-09T13:20:15.421Z,101543.09
2023-04-09T13:22:43.127Z,101541.16
2023-04-09T13:25:14.401Z,101540.78
2023-04-09T13:27:42.621Z,101548.06
2023-04-09T13:30:10.780Z,101554.84
2023-04-09T13:32:38.866Z,101550.19
2023-04-09T13:35:07.919Z,101551.38
2023-04-09T13:37:35.757Z,101551.34
2023-04-09T13:40:04.049Z,101550.34
2023-04-09T13:42:33.194Z,101537.75
2023-04-09T13:45:01.009Z,101534.13
2023-04-09T13:47:28.788Z,101534.22
2023-04-09T13:49:56.625Z,101538.00
2023-04-09T13:52:28.169Z,101533.41
2023-04-09T13:54:57.280Z,101535.50
2023-04-09T13:57:25.054Z,101536.91
2023-04-09T13:59:54.262Z,101536.34
2023-04-09T14:02:22.278Z,101531.13
2023-04-09T14:04:50.212Z,101543.00
2023-04-09T14:07:17.901Z,101529.25
2023-04-09T14:09:45.744Z,101528.38
2023-04-09T14:12:13.452Z,101534.50
2023-04-09T14:14:41.187Z,101518.34
2023-04-09T14:17:10.449Z,101519.06
2023-04-09T14:19:39.112Z,101517.75
2023-04-09T14:22:07.346Z,101517.97
2023-04-09T14:24:39.867Z,101512.78
2023-04-09T14:27:08.164Z,101514.41
2023-04-09T14:29:36.521Z,101507.09
2023-04-09T14:32:04.230Z,101502.03
2023-04-09T14:34:33.300Z,101499.16
2023-04-09T14:37:01.182Z,101499.59
2023-04-09T14:39:28.877Z,101500.41
2023-04-09T14:41:57.287Z,101496.66
2023-04-09T14:44:26.375Z,101495.97
2023-04-09T14:46:56.241Z,101507.59
2023-04-09T14:49:24.066Z,101490.66
2023-04-09T14:51:53.212Z,101491.47
2023-04-09T14:54:21.171Z,101498.50
2023-04-09T14:56:48.882Z,101488.03
2023-04-09T14:59:16.653Z,101493.13
2023-04-09T15:01:44.418Z,101496.16
2023-04-09T15:04:14.117Z,101491.19
2023-04-09T15:06:41.964Z,101496.09
2023-04-09T15:09:11.103Z,101489.66
2023-04-09T15:11:38.853Z,101485.31
2023-04-09T15:14:06.677Z,101488.53
2023-04-09T15:16:37.326Z,101486.44
2023-04-09T15:19:05.378Z,101483.22
2023-04-09T15:21:33.305Z,101471.56
2023-04-09T15:24:01.155Z,101474.66
2023-04-09T15:26:30.252Z,101476.47
2023-04-09T15:29:03.061Z,101485.56
2023-04-09T15:31:31.363Z,101478.56
2023-04-09T15:33:59.154Z,101484.56
2023-04-09T15:36:29.106Z,101489.25
2023-04-09T15:38:56.923Z,101485.88
2023-04-09T15:41:24.797Z,101481.66
2023-04-09T15:43:54.728Z,101486.72
2023-04-09T15:46:24.168Z,101473.41
2023-04-09T15:48:52.123Z,101476.91
2023-04-09T15:51:20.201Z,101481.38
2023-04-09T15:53:47.932Z,101483.50
2023-04-09T15:56:16.134Z,101478.44
2023-04-09T15:58:44.374Z,101469.03
2023-04-09T16:01:13.919Z,101466.84
2023-04-09T16:03:41.802Z,101474.81
2023-04-09T16:06:13.165Z,101475.81
2023-04-09T16:08:41.407Z,101476.25
2023-04-09T16:11:09.530Z,101465.28
2023-04-09T16:13:37.526Z,101470.75
2023-04-09T16:16:06.733Z,101481.84
2023-04-09T16:18:36.087Z,101473.56
2023-04-09T16:21:04.221Z,101481.09
2023-04-09T16:23:32.964Z,101468.22
2023-04-09T16:26:00.768Z,101466.28
2023-04-09T16:28:28.650Z,101464.03
2023-04-09T16:30:56.427Z,101454.38
2023-04-09T16:33:24.140Z,101458.69
2023-04-09T16:35:53.269Z,101447.38
2023-04-09T16:38:21.058Z,101452.00
2023-04-09T16:40:48.870Z,101456.63
2023-04-09T16:43:16.656Z,101457.19
2023-04-09T16:45:44.408Z,101454.66
2023-04-09T16:48:13.469Z,101445.25
2023-04-09T16:50:41.279Z,101442.16
2023-04-09T16:53:10.498Z,101431.13
2023-04-09T16:55:38.423Z,101429.00
2023-04-09T16:58:06.182Z,101429.69
2023-04-09T17:00:35.310Z,101429.69
2023-04-09T17:03:03.153Z,101428.38
2023-04-09T17:05:31.417Z,101423.59
2023-04-09T17:07:59.248Z,101413.81
2023-04-09T17:10:28.570Z,101407.34
2023-04-09T17:12:56.400Z,101401.75
2023-04-09T17:15:25.239Z,101400.03
2023-04-09T17:17:53.698Z,101404.78
2023-04-09T17:20:22.673Z,101413.97
2023-04-09T17:22:50.498Z,101413.00
2023-04-09T17:25:18.587Z,101418.69
2023-04-09T17:27:50.383Z,101420.91
2023-04-09T17:30:18.166Z,101429.69
2023-04-09T17:32:46.131Z,101430.06
2023-04-09T17:35:14.085Z,101426.41
2023-04-09T17:37:41.865Z,101431.38
2023-04-09T17:40:12.388Z,101434.28
2023-04-09T17:42:40.807Z,101430.75
2023-04-09T17:45:11.140Z,101435.47
2023-04-09T17:47:40.934Z,101440.16
2023-04-09T17:50:09.954Z,101436.94
2023-04-09T17:52:38.725Z,101434.78
2023-04-09T17:55:07.601Z,101439.06
2023-04-09T17:57:35.669Z,101435.22
2023-04-09T18:00:04.048Z,101436.00
2023-04-09T18:02:33.638Z,101436.25
2023-04-09T18:05:04.404Z,101427.56
2023-04-09T18:07:35.353Z,101428.22
2023-04-09T18:10:10.479Z,101426.66
2023-04-09T18:12:38.205Z,101437.50
2023-04-09T18:15:07.160Z,101429.91
2023-04-09T18:17:36.314Z,101424.53
2023-04-09T18:20:04.458Z,101429.72
2023-04-09T18:22:32.204Z,101429.72
2023-04-09T18:25:00.142Z,101431.41
2023-04-09T18:27:27.898Z,101425.78
2023-04-09T18:29:55.942Z,101433.25
2023-04-09T18:32:23.714Z,101427.03
2023-04-09T18:34:52.893Z,101435.09
2023-04-09T18:37:21.830Z,101426.69
2023-04-09T18:39:49.587Z,101428.63
2023-04-09T18:42:17.388Z,101431.63
2023-04-09T18:44:45.688Z,101419.44
2023-04-09T18:47:13.618Z,101423.56
2023-04-09T18:49:41.421Z,101430.53
2023-04-09T18:52:10.815Z,101433.53
2023-04-09T18:54:38.831Z,101432.81
2023-04-09T18:57:07.000Z,101438.59
2023-04-09T18:59:35.103Z,101441.44
2023-04-09T19:02:05.090Z,101433.72
2023-04-09T19:04:36.278Z,101442.03
2023-04-09T19:07:04.422Z,101443.34
2023-04-09T19:09:34.455Z,101442.59
2023-04-09T19:12:02.681Z,101439.50
2023-04-09T19:14:30.399Z,101444.28
2023-04-09T19:16:58.769Z,101445.56
2023-04-09T19:19:27.335Z,101451.09
2023-04-09T19:21:55.062Z,101445.56
2023-04-09T19:24:23.587Z,101450.50
2023-04-09T19:26:53.466Z,101448.19
2023-04-09T19:29:21.334Z,101446.84
2023-04-09T19:31:49.040Z,101444.19
2023-04-09T19:34:17.030Z,101435.53
2023-04-09T19:36:44.774Z,101440.38
2023-04-09T19:39:12.593Z,101442.69
2023-04-09T19:41:40.653Z,101435.41
2023-04-09T19:44:10.009Z,101444.59
2023-04-09T19:46:37.906Z,101448.28
2023-04-09T19:49:06.334Z,101455.16
2023-04-09T19:51:34.159Z,101448.63
2023-04-09T19:54:01.985Z,101452.13
2023-04-09T19:56:29.752Z,101450.91
2023-04-09T19:58:57.489Z,101446.28
2023-04-09T20:01:26.858Z,101450.88
2023-04-09T20:03:55.005Z,101453.22
2023-04-09T20:06:22.911Z,101450.06
2023-04-09T20:08:50.607Z,101453.34
2023-04-09T20:11:19.107Z,101449.22
2023-04-09T20:13:47.981Z,101447.06
2023-04-09T20:16:16.117Z,101443.69
2023-04-09T20:18:45.336Z,101445.06
2023-04-09T20:21:14.479Z,101443.59
2023-04-09T20:23:42.535Z,101438.31
2023-04-09T20:26:11.231Z,101435.81
2023-04-09T20:28:38.973Z,101434.84
2023-04-09T20:31:07.764Z,101435.06
2023-04-09T20:33:35.559Z,101428.81
2023-04-09T20:36:05.014Z,101437.50
2023-04-09T20:38:32.792Z,101430.28
2023-04-09T20:41:00.697Z,101436.00
2023-04-09T20:43:28.510Z,101436.13
2023-04-09T20:45:56.365Z,101430.00
2023-04-09T20:48:24.142Z,101437.28
2023-04-09T20:50:52.382Z,101429.69
2023-04-09T20:53:21.841Z,101427.59
2023-04-09T20:55:50.732Z,101421.69
2023-04-09T20:58:18.631Z,101418.56
2023-04-09T21:00:46.621Z,101428.47
2023-04-09T21:03:14.623Z,101421.72
2023-04-09T21:05:42.674Z,101414.97
2023-04-09T21:08:14.629Z,101411.59
2023-04-09T21:10:43.684Z,101417.09
2023-04-09T21:13:11.467Z,101409.50
2023-04-09T21:15:39.212Z,101404.44
2023-04-09T21:18:07.619Z,101397.56
2023-04-09T21:20:35.580Z,101395.28
2023-04-09T21:23:03.670Z,101394.19
2023-04-09T21:25:31.437Z,101402.84
2023-04-09T21:28:00.596Z,101398.50
2023-04-09T21:30:28.976Z,101399.59
2023-04-09T21:32:56.874Z,101406.13
2023-04-09T21:35:24.580Z,101406.75
2023-04-09T21:37:52.440Z,101408.66
2023-04-09T21:40:20.120Z,101411.19
2023-04-09T21:42:47.863Z,101411.41
2023-04-09T21:45:17.507Z,101409.19
2023-04-09T21:47:45.465Z,101401.25
2023-04-09T21:50:13.457Z,101408.22
2023-04-09T21:52:41.787Z,101414.59
2023-04-09T21:55:10.703Z,101410.25
2023-04-09T21:57:38.483Z,101404.03
2023-04-09T22:00:09.314Z,101396.31
2023-04-09T22:02:40.004Z,101393.06
2023-04-09T22:05:08.386Z,101400.66
2023-04-09T22:07:37.268Z,101398.22
2023-04-09T22:10:05.671Z,101400.88
2023-04-09T22:12:36.094Z,101394.94
2023-04-09T22:15:04.757Z,101389.03
2023-04-09T22:17:32.627Z,101389.03
2023-04-09T22:20:01.790Z,101389.59
2023-04-09T22:22:29.508Z,101399.28
2023-04-09T22:24:57.315Z,101400.97
2023-04-09T22:27:24.990Z,101402.34
2023-04-09T22:29:52.744Z,101408.47
2023-04-09T22:32:20.528Z,101401.50
2023-04-09T22:34:48.282Z,101419.84
2023-04-09T22:37:17.729Z,101423.53
2023-04-09T22:39:45.479Z,101427.47
2023-04-09T22:42:13.423Z,101436.44
2023-04-09T22:44:41.434Z,101429.75
2023-04-09T22:47:09.203Z,101437.88
2023-04-09T22:49:36.920Z,101430.09
2023-04-09T22:52:05.592Z,101436.41
2023-04-09T22:54:34.690Z,101437.47
2023-04-09T22:57:03.073Z,101425.13
2023-04-09T22:59:39.711Z,101427.22
2023-04-09T23:02:08.710Z,101426.56
2023-04-09T23:04:36.823Z,101440.41
2023-04-09T23:07:04.689Z,101441.34
2023-04-09T23:09:33.909Z,101447.22
2023-04-09T23:12:02.222Z,101433.50
2023-04-09T23:14:30.000Z,101422.28
2023-04-09T23:16:57.913Z,101433.59
2023-04-09T23:19:25.720Z,101435.19
2023-04-09T23:21:53.463Z,101434.84
2023-04-09T23:24:21.186Z,101415.94
2023-04-09T23:26:50.407Z,101431.88
2023-04-09T23:29:18.152Z,101434.31
2023-04-09T23:31:45.951Z,101427.75
2023-04-09T23:34:13.961Z,101423.53
2023-04-09T23:36:41.975Z,101422.69
2023-04-09T23:39:09.800Z,101422.13
2023-04-09T23:41:38.334Z,101422.88
2023-04-09T23:44:07.422Z,101426.66
2023-04-09T23:46:35.360Z,101422.34
2023-04-09T23:49:03.171Z,101423.72
2023-04-09T23:51:31.601Z,101426.84
2023-04-09T23:54:00.379Z,101426.66
2023-04-09T23:56:29.356Z,101425.16
2023-04-09T23:58:57.068Z,101414.00
